Time;durP1;ratioP1;P1;durP2;ratioP2;P2;SDS_P1;SDS_P2;PMS_P1;PMS_P2;Temp;Humidity;BMP_temperature;BMP_pressure;BME280_temperature;BME280_humidity;BME280_pressure;Samples;Min_cycle;Max_cycle;Signal;HPM_P1;HPM_P2
2022/09/11 00:01:29;;;;;;;29.80;25.15;;;14.90;99.90;;;;;;5007051;28;20041;-62
2022/09/11 00:03:56;;;;;;;32.22;26.50;;;14.90;99.90;;;;;;4980683;28;20403;-61
2022/09/11 00:06:23;;;;;;;29.77;25.65;;;14.90;99.90;;;;;;4992782;28;20042;-62
2022/09/11 00:08:52;;;;;;;29.30;24.95;;;14.90;99.90;;;;;;4997168;28;20042;-62
2022/09/11 00:11:20;;;;;;;31.92;25.90;;;14.90;99.90;;;;;;5012338;28;20042;-63
2022/09/11 00:13:48;;;;;;;32.20;26.08;;;14.90;99.90;;;;;;5006176;28;20038;-61
2022/09/11 00:16:27;;;;;;;29.50;24.83;;;14.80;99.90;;;;;;5002220;28;20193;-61
2022/09/11 00:18:57;;;;;;;32.25;25.30;;;14.80;99.90;;;;;;5008341;28;20519;-61
2022/09/11 00:21:24;;;;;;;31.40;24.60;;;14.80;99.90;;;;;;5001651;28;20491;-61
2022/09/11 00:23:50;;;;;;;29.83;25.42;;;14.70;99.90;;;;;;4990504;28;20049;-64
2022/09/11 00:26:17;;;;;;;29.55;26.35;;;14.80;99.90;;;;;;4996019;28;20049;-61
2022/09/11 00:28:44;;;;;;;30.95;27.23;;;14.90;99.90;;;;;;5000921;28;20050;-62
2022/09/11 00:31:13;;;;;;;32.38;26.13;;;14.90;99.90;;;;;;4990687;28;20057;-62
2022/09/11 00:33:39;;;;;;;32.25;25.95;;;14.80;99.90;;;;;;5004527;28;20041;-61
2022/09/11 00:36:09;;;;;;;34.35;27.85;;;14.90;99.90;;;;;;4996457;28;20030;-62
2022/09/11 00:38:36;;;;;;;32.85;26.85;;;14.90;99.90;;;;;;5000299;28;20046;-61
2022/09/11 00:41:06;;;;;;;33.22;27.83;;;14.90;99.90;;;;;;5011308;28;20038;-62
2022/09/11 00:43:51;;;;;;;31.60;27.40;;;14.90;99.90;;;;;;4995531;28;20050;-62
2022/09/11 00:46:18;;;;;;;32.78;26.90;;;14.80;99.90;;;;;;4993295;28;20038;-62
2022/09/11 00:48:48;;;;;;;32.13;27.15;;;14.80;99.90;;;;;;4994140;28;20095;-62
2022/09/11 00:51:25;;;;;;;33.28;27.83;;;14.80;99.90;;;;;;4997555;28;20129;-62
2022/09/11 00:53:54;;;;;;;33.83;27.50;;;14.70;99.90;;;;;;4997948;28;20049;-62
2022/09/11 00:56:21;;;;;;;33.33;27.40;;;14.70;99.90;;;;;;4991904;28;20120;-61
2022/09/11 00:58:48;;;;;;;32.08;26.88;;;14.60;99.90;;;;;;4991511;28;20034;-61
2022/09/11 01:01:14;;;;;;;32.72;27.33;;;14.70;99.90;;;;;;5004079;28;20125;-62
2022/09/11 01:03:41;;;;;;;31.73;28.33;;;14.70;99.90;;;;;;4983150;28;20169;-61
2022/09/11 01:06:08;;;;;;;31.95;27.05;;;14.70;99.90;;;;;;5002081;28;20391;-63
2022/09/11 01:08:34;;;;;;;32.20;27.10;;;14.60;99.90;;;;;;5008346;28;20050;-61
2022/09/11 01:10:59;;;;;;;29.13;25.35;;;14.60;99.90;;;;;;4990922;28;20434;-61
2022/09/11 01:13:53;;;;;;;34.40;27.80;;;14.60;99.90;;;;;;4994291;28;20042;-61
2022/09/11 01:16:34;;;;;;;33.17;28.13;;;14.60;99.90;;;;;;4995642;28;20111;-61
2022/09/11 01:19:09;;;;;;;30.23;26.98;;;14.60;99.90;;;;;;4975135;28;20312;-61
2022/09/11 01:22:04;;;;;;;28.75;25.55;;;14.50;99.90;;;;;;4991026;28;20468;-61
2022/09/11 01:24:53;;;;;;;31.02;26.98;;;14.60;99.90;;;;;;4995470;28;20049;-61
2022/09/11 01:27:43;;;;;;;31.20;27.27;;;14.60;99.90;;;;;;5002885;28;20056;-62
2022/09/11 01:30:11;;;;;;;30.67;26.45;;;14.60;99.90;;;;;;4999071;28;20041;-61
2022/09/11 01:32:37;;;;;;;33.78;28.30;;;14.60;99.90;;;;;;5008784;28;20142;-60
2022/09/11 01:35:18;;;;;;;32.42;27.65;;;14.40;99.90;;;;;;4986914;28;20050;-62
2022/09/11 01:37:58;;;;;;;31.85;26.15;;;14.60;99.90;;;;;;4991341;28;20065;-61
2022/09/11 01:40:32;;;;;;;28.13;25.10;;;14.50;99.90;;;;;;4991135;28;20046;-61
2022/09/11 01:43:16;;;;;;;31.90;27.02;;;14.50;99.90;;;;;;4994890;28;20038;-61
2022/09/11 01:45:46;;;;;;;30.05;26.15;;;14.60;99.90;;;;;;4998647;28;20116;-62
2022/09/11 01:48:16;;;;;;;29.35;25.10;;;14.40;99.90;;;;;;4976896;28;20089;-62
2022/09/11 01:50:46;;;;;;;32.50;26.17;;;14.50;99.90;;;;;;4990940;28;20131;-61
2022/09/11 01:53:16;;;;;;;33.95;27.60;;;14.60;99.90;;;;;;4995694;28;20053;-63
2022/09/11 01:56:04;;;;;;;30.30;26.20;;;14.50;99.90;;;;;;4991115;28;20038;-62
2022/09/11 01:58:35;;;;;;;29.88;25.27;;;14.50;99.90;;;;;;5004239;28;20056;-61
2022/09/11 02:01:12;;;;;;;31.38;27.10;;;14.50;99.90;;;;;;4990631;28;20429;-63
2022/09/11 02:03:43;;;;;;;32.38;26.67;;;14.40;99.90;;;;;;4994706;28;20101;-61
2022/09/11 02:06:20;;;;;;;31.90;27.08;;;14.40;99.90;;;;;;5001471;28;20057;-61
2022/09/11 02:08:54;;;;;;;28.80;24.45;;;14.30;99.90;;;;;;5005297;28;20315;-61
2022/09/11 02:11:20;;;;;;;29.65;25.52;;;14.30;99.90;;;;;;4990919;28;20074;-61
2022/09/11 02:14:15;;;;;;;27.30;24.40;;;14.30;99.90;;;;;;4993703;28;20042;-61
2022/09/11 02:17:05;;;;;;;26.88;23.13;;;14.30;99.90;;;;;;4998383;28;20131;-61
2022/09/11 02:19:31;;;;;;;25.52;22.85;;;14.30;99.90;;;;;;5001147;28;20124;-62
2022/09/11 02:21:58;;;;;;;26.17;22.80;;;14.20;99.90;;;;;;4990371;28;20264;-62
2022/09/11 02:24:25;;;;;;;23.95;21.45;;;14.20;99.90;;;;;;5000493;28;20042;-62
2022/09/11 02:26:54;;;;;;;25.88;23.15;;;14.20;99.90;;;;;;5003984;28;20065;-61
2022/09/11 02:29:20;;;;;;;26.05;23.17;;;14.20;99.90;;;;;;5007351;28;20383;-62
2022/09/11 02:31:47;;;;;;;24.23;21.58;;;14.20;99.90;;;;;;4991156;28;20026;-61
2022/09/11 02:34:14;;;;;;;25.70;23.00;;;14.20;99.90;;;;;;5008939;28;20140;-62
2022/09/11 02:37:07;;;;;;;25.63;21.55;;;14.30;99.90;;;;;;4988081;28;20050;-62
2022/09/11 02:39:42;;;;;;;22.73;20.30;;;14.20;99.90;;;;;;4993517;28;20515;-62
2022/09/11 02:42:42;;;;;;;22.52;20.23;;;14.10;99.90;;;;;;4997181;28;20034;-62
2022/09/11 02:45:31;;;;;;;26.42;22.30;;;14.20;99.90;;;;;;4994096;28;20069;-62
2022/09/11 02:48:37;;;;;;;23.10;20.67;;;14.20;99.90;;;;;;4969304;28;20050;-62
2022/09/11 02:51:33;;;;;;;23.98;21.45;;;14.20;99.90;;;;;;4994351;28;20188;-62
2022/09/11 02:54:27;;;;;;;22.98;20.33;;;14.20;99.90;;;;;;4989499;28;20442;-62
2022/09/11 02:57:08;;;;;;;33.88;19.08;;;14.20;99.90;;;;;;4995517;28;20455;-61
2022/09/11 02:59:59;;;;;;;44.33;21.08;;;14.10;99.90;;;;;;4993645;28;20058;-61
2022/09/11 03:02:27;;;;;;;55.83;20.38;;;14.00;99.90;;;;;;4994481;28;20470;-61
2022/09/11 03:04:53;;;;;;;131.75;22.83;;;14.10;99.90;;;;;;4993726;28;20061;-61
2022/09/11 03:07:18;;;;;;;64.10;21.73;;;13.90;99.90;;;;;;4993514;28;20426;-63
2022/09/11 03:09:44;;;;;;;39.72;22.30;;;13.90;99.90;;;;;;4993090;28;20042;-62
2022/09/11 03:12:10;;;;;;;23.20;20.15;;;13.90;99.90;;;;;;4993489;28;20161;-61
2022/09/11 03:14:37;;;;;;;21.60;19.15;;;14.00;99.90;;;;;;5011568;28;20386;-61
2022/09/11 03:17:03;;;;;;;22.27;19.02;;;14.00;99.90;;;;;;5011030;28;20049;-62
2022/09/11 03:19:29;;;;;;;21.38;19.13;;;13.90;99.90;;;;;;5001673;28;20042;-61
2022/09/11 03:21:55;;;;;;;19.15;17.25;;;13.90;99.90;;;;;;4998437;28;20361;-61
2022/09/11 03:24:21;;;;;;;18.60;16.70;;;13.90;99.90;;;;;;4998236;28;20057;-61
2022/09/11 03:26:46;;;;;;;21.15;18.60;;;13.90;99.90;;;;;;5000534;28;20434;-61
2022/09/11 03:29:12;;;;;;;21.48;18.13;;;13.90;99.90;;;;;;5011812;28;20259;-63
2022/09/11 03:31:38;;;;;;;21.10;18.65;;;13.80;99.90;;;;;;5013004;28;20038;-61
2022/09/11 03:34:05;;;;;;;21.27;18.90;;;13.80;99.90;;;;;;4998977;28;20072;-62
2022/09/11 03:36:33;;;;;;;21.15;18.95;;;13.90;99.90;;;;;;4993204;28;20050;-61
2022/09/11 03:38:59;;;;;;;22.05;19.75;;;13.90;99.90;;;;;;4992483;28;20459;-61
2022/09/11 03:41:25;;;;;;;20.50;18.30;;;13.80;99.90;;;;;;4995755;28;20057;-62
2022/09/11 03:43:51;;;;;;;21.20;18.63;;;13.90;99.90;;;;;;5009530;28;20502;-61
2022/09/11 03:46:17;;;;;;;21.88;18.75;;;13.80;99.90;;;;;;4997178;28;20463;-62
2022/09/11 03:48:45;;;;;;;21.15;18.85;;;13.80;99.90;;;;;;4991445;28;20108;-62
2022/09/11 03:51:13;;;;;;;21.08;18.83;;;13.90;99.90;;;;;;4992928;28;20041;-63
2022/09/11 03:53:40;;;;;;;20.88;18.73;;;13.90;99.90;;;;;;4988607;28;20066;-62
2022/09/11 03:56:06;;;;;;;20.77;18.63;;;13.80;99.90;;;;;;5003661;28;20116;-62
2022/09/11 03:58:32;;;;;;;21.60;19.40;;;13.80;99.90;;;;;;4994232;28;20539;-61
2022/09/11 04:00:58;;;;;;;19.08;17.08;;;13.90;99.90;;;;;;4993010;28;20038;-62
2022/09/11 04:03:24;;;;;;;19.20;17.20;;;13.80;99.90;;;;;;4998364;28;20116;-63
2022/09/11 04:06:00;;;;;;;18.38;16.45;;;13.80;99.90;;;;;;5000669;28;20168;-61
2022/09/11 04:08:26;;;;;;;18.17;16.33;;;13.60;99.90;;;;;;4996934;28;20105;-62
2022/09/11 04:11:00;;;;;;;18.55;16.20;;;13.70;99.90;;;;;;4991565;28;20023;-62
2022/09/11 04:13:34;;;;;;;16.42;14.75;;;13.70;99.90;;;;;;4997532;28;20053;-62
2022/09/11 04:16:01;;;;;;;19.15;17.15;;;13.70;99.90;;;;;;4993123;28;20118;-63
2022/09/11 04:18:29;;;;;;;16.60;14.88;;;13.70;99.90;;;;;;5005697;28;20467;-61
2022/09/11 04:20:55;;;;;;;16.98;15.20;;;13.70;99.90;;;;;;4992906;28;20363;-62
2022/09/11 04:23:20;;;;;;;15.75;13.95;;;13.70;99.90;;;;;;5006521;28;20042;-62
2022/09/11 04:25:46;;;;;;;16.58;14.98;;;13.70;99.90;;;;;;4993467;28;20030;-62
2022/09/11 04:28:13;;;;;;;16.42;14.73;;;13.70;99.90;;;;;;5011311;28;20061;-62
2022/09/11 04:30:39;;;;;;;15.50;13.93;;;13.60;99.90;;;;;;5011463;28;20099;-62
2022/09/11 04:33:05;;;;;;;17.73;15.93;;;13.70;99.90;;;;;;4994108;28;20046;-61
2022/09/11 04:35:31;;;;;;;15.80;14.07;;;13.60;99.90;;;;;;5011453;28;20435;-62
2022/09/11 04:37:57;;;;;;;14.88;13.52;;;13.60;99.90;;;;;;5008838;28;20038;-63
2022/09/11 04:40:23;;;;;;;14.75;13.35;;;13.50;99.90;;;;;;4995590;28;20037;-62
2022/09/11 04:42:48;;;;;;;15.68;14.10;;;13.60;99.90;;;;;;4998572;28;20034;-62
2022/09/11 04:45:15;;;;;;;15.30;13.68;;;13.60;99.90;;;;;;4974355;28;20105;-62
2022/09/11 04:47:40;;;;;;;17.33;15.45;;;13.60;99.90;;;;;;5004254;28;20038;-62
2022/09/11 04:50:07;;;;;;;15.30;13.80;;;13.60;99.90;;;;;;4994850;28;20041;-62
2022/09/11 04:52:33;;;;;;;14.88;12.70;;;13.60;99.90;;;;;;5001099;28;20125;-62
2022/09/11 04:55:00;;;;;;;15.52;13.35;;;13.60;99.90;;;;;;4994973;28;20149;-61
2022/09/11 04:57:27;;;;;;;13.80;12.43;;;13.60;99.90;;;;;;5001092;28;20041;-63
2022/09/11 04:59:53;;;;;;;14.93;13.35;;;13.60;99.90;;;;;;4996328;28;20136;-62
2022/09/11 05:02:19;;;;;;;13.98;12.57;;;13.70;99.90;;;;;;5004481;28;20058;-61
2022/09/11 05:04:44;;;;;;;14.00;12.60;;;13.60;99.90;;;;;;5009508;28;20041;-62
2022/09/11 05:07:12;;;;;;;16.80;15.15;;;13.60;99.90;;;;;;4979761;28;20056;-62
2022/09/11 05:09:38;;;;;;;16.92;14.90;;;13.60;99.90;;;;;;4999525;28;20078;-62
2022/09/11 05:12:03;;;;;;;15.80;14.30;;;13.70;99.90;;;;;;4994779;28;20143;-63
2022/09/11 05:14:31;;;;;;;16.35;14.75;;;13.70;99.90;;;;;;4994644;28;20045;-62
2022/09/11 05:16:57;;;;;;;16.40;14.70;;;13.70;99.90;;;;;;4991556;28;20053;-62
2022/09/11 05:19:24;;;;;;;16.10;14.40;;;13.70;99.90;;;;;;4991227;28;20367;-62
2022/09/11 05:21:50;;;;;;;16.08;13.52;;;13.70;99.90;;;;;;4991003;28;20415;-62
2022/09/11 05:24:15;;;;;;;17.13;15.00;;;13.70;99.90;;;;;;4996995;28;20061;-61
2022/09/11 05:26:41;;;;;;;16.55;14.80;;;13.70;99.90;;;;;;5010568;28;20454;-62
2022/09/11 05:29:14;;;;;;;19.15;15.07;;;13.70;99.90;;;;;;5009986;28;20049;-62
2022/09/11 05:31:40;;;;;;;18.70;15.07;;;13.70;99.90;;;;;;4991072;28;20110;-62
2022/09/11 05:34:07;;;;;;;41.10;16.20;;;13.70;99.90;;;;;;5000487;28;20130;-61
2022/09/11 05:36:34;;;;;;;38.60;16.05;;;13.80;99.90;;;;;;4991904;28;20048;-62
2022/09/11 05:39:00;;;;;;;24.13;13.30;;;13.80;99.90;;;;;;4990810;28;20057;-61
2022/09/11 05:41:26;;;;;;;27.63;14.35;;;13.90;99.90;;;;;;4990999;28;20030;-61
2022/09/11 05:43:52;;;;;;;31.92;14.52;;;13.90;99.90;;;;;;4990468;28;20038;-62
2022/09/11 05:46:19;;;;;;;18.30;13.50;;;13.90;99.90;;;;;;4990753;28;20468;-61
2022/09/11 05:48:45;;;;;;;18.65;14.23;;;14.00;99.90;;;;;;4992910;28;20045;-62
2022/09/11 05:51:14;;;;;;;14.65;13.02;;;14.00;99.90;;;;;;4997559;28;20035;-62
2022/09/11 05:53:40;;;;;;;14.27;12.80;;;14.10;99.90;;;;;;4996984;28;20103;-61
2022/09/11 05:56:08;;;;;;;13.60;12.20;;;14.30;99.90;;;;;;4998674;28;20057;-61
2022/09/11 05:58:34;;;;;;;13.80;12.40;;;14.50;99.90;;;;;;5009095;28;20053;-63
2022/09/11 06:01:11;;;;;;;13.25;11.82;;;14.80;99.90;;;;;;4993140;28;20038;-61
2022/09/11 06:03:38;;;;;;;12.23;11.02;;;15.30;99.90;;;;;;4990120;28;20045;-62
2022/09/11 06:06:06;;;;;;;11.10;10.02;;;15.70;99.90;;;;;;4990672;28;20474;-63
2022/09/11 06:08:33;;;;;;;10.95;9.95;;;16.00;99.90;;;;;;5003931;28;20061;-61
2022/09/11 06:11:01;;;;;;;11.80;10.57;;;16.20;99.90;;;;;;5010452;28;20037;-61
2022/09/11 06:13:30;;;;;;;10.88;9.85;;;16.40;99.90;;;;;;5006706;28;20354;-62
2022/09/11 06:15:56;;;;;;;11.80;10.60;;;16.50;99.90;;;;;;4994538;28;20120;-61
2022/09/11 06:18:22;;;;;;;11.73;10.55;;;16.70;99.90;;;;;;4990119;28;20152;-62
2022/09/11 06:20:58;;;;;;;11.55;10.52;;;16.80;99.90;;;;;;4995292;28;20096;-61
2022/09/11 06:23:24;;;;;;;11.98;10.82;;;17.00;99.90;;;;;;4991040;28;20045;-63
2022/09/11 06:25:53;;;;;;;11.65;10.60;;;17.10;99.90;;;;;;5013923;28;20395;-62
2022/09/11 06:28:21;;;;;;;12.07;10.98;;;17.20;99.90;;;;;;5013937;28;20050;-61
2022/09/11 06:30:50;;;;;;;11.75;10.68;;;17.30;99.90;;;;;;4996956;28;20038;-62
2022/09/11 06:33:19;;;;;;;11.50;10.40;;;17.40;99.90;;;;;;5007890;28;20100;-62
2022/09/11 06:35:56;;;;;;;10.93;9.90;;;17.50;99.90;;;;;;4994645;28;20144;-62
2022/09/11 06:38:21;;;;;;;10.65;9.57;;;17.80;99.90;;;;;;5000257;28;20459;-63
2022/09/11 06:40:47;;;;;;;10.48;9.48;;;18.00;99.90;;;;;;5005909;28;20049;-62
2022/09/11 06:43:13;;;;;;;9.30;8.18;;;18.20;99.90;;;;;;5012096;28;20044;-62
2022/09/11 06:45:40;;;;;;;9.32;8.38;;;18.30;99.90;;;;;;4970367;28;20053;-62
2022/09/11 06:48:06;;;;;;;8.50;7.70;;;18.40;99.90;;;;;;5002184;28;20080;-62
2022/09/11 06:50:39;;;;;;;9.32;7.53;;;18.60;99.90;;;;;;5001835;28;20029;-62
2022/09/11 06:53:05;;;;;;;8.38;7.57;;;18.80;99.90;;;;;;4998654;28;20173;-63
2022/09/11 06:55:32;;;;;;;9.75;8.00;;;18.80;99.90;;;;;;4999488;28;20058;-61
2022/09/11 06:57:57;;;;;;;9.20;7.57;;;18.90;99.90;;;;;;5013763;28;20045;-62
2022/09/11 07:00:24;;;;;;;8.20;7.45;;;18.70;99.90;;;;;;5015311;28;20112;-61
2022/09/11 07:02:51;;;;;;;8.27;7.47;;;18.60;99.90;;;;;;5010591;28;20072;-61
2022/09/11 07:05:18;;;;;;;8.50;6.68;;;18.30;99.90;;;;;;5029169;28;20467;-62
2022/09/11 07:07:44;;;;;;;9.05;7.05;;;18.20;99.90;;;;;;5031240;28;20064;-62
2022/09/11 07:10:10;;;;;;;7.85;6.90;;;18.30;99.90;;;;;;5028963;28;20173;-61
2022/09/11 07:12:37;;;;;;;7.68;6.88;;;18.20;99.90;;;;;;5031048;28;20138;-61
2022/09/11 07:15:05;;;;;;;8.13;6.65;;;18.10;99.90;;;;;;5030734;28;20040;-61
2022/09/11 07:17:31;;;;;;;7.60;6.90;;;17.90;99.90;;;;;;5026476;28;20064;-61
2022/09/11 07:19:57;;;;;;;8.88;7.45;;;17.80;99.90;;;;;;5028779;28;20037;-62
2022/09/11 07:22:22;;;;;;;7.28;6.57;;;17.80;99.90;;;;;;5024421;28;20414;-62
2022/09/11 07:24:48;;;;;;;7.18;6.38;;;17.80;99.90;;;;;;5021432;28;20091;-62
2022/09/11 07:27:14;;;;;;;7.40;6.57;;;17.90;99.90;;;;;;5028313;28;20048;-63
2022/09/11 07:29:40;;;;;;;8.00;7.20;;;18.00;99.90;;;;;;5028916;28;20056;-62
2022/09/11 07:32:05;;;;;;;8.63;7.18;;;18.00;99.90;;;;;;5031521;28;20384;-62
2022/09/11 07:34:31;;;;;;;8.05;6.82;;;18.10;99.90;;;;;;5027811;28;20060;-61
2022/09/11 07:36:56;;;;;;;8.23;6.93;;;18.20;99.90;;;;;;5029999;28;20034;-63
2022/09/11 07:39:22;;;;;;;8.10;7.30;;;18.30;99.90;;;;;;5027814;28;20037;-62
2022/09/11 07:41:48;;;;;;;8.88;7.45;;;18.20;99.90;;;;;;5030862;28;20072;-62
2022/09/11 07:44:15;;;;;;;9.38;7.85;;;18.40;99.90;;;;;;5029356;28;20474;-61
2022/09/11 07:46:40;;;;;;;10.40;8.68;;;18.40;99.90;;;;;;5001812;28;20034;-63
2022/09/11 07:49:08;;;;;;;11.45;8.82;;;18.50;99.90;;;;;;4994569;28;20397;-61
2022/09/11 07:51:35;;;;;;;11.68;9.38;;;18.40;99.90;;;;;;5013168;28;20045;-64
2022/09/11 07:54:01;;;;;;;9.52;8.32;;;18.50;99.90;;;;;;4999616;28;20045;-61
2022/09/11 07:56:27;;;;;;;9.75;8.63;;;18.50;99.90;;;;;;5028491;28;20045;-62
2022/09/11 07:58:54;;;;;;;9.63;8.30;;;18.50;99.90;;;;;;5012583;28;20048;-61
2022/09/11 08:01:30;;;;;;;9.65;7.90;;;18.60;99.90;;;;;;5013174;28;20080;-61
2022/09/11 08:04:01;;;;;;;10.00;8.45;;;18.80;99.90;;;;;;5011800;28;20037;-62
2022/09/11 08:06:30;;;;;;;9.27;8.40;;;18.90;99.90;;;;;;5017410;28;20343;-62
2022/09/11 08:08:59;;;;;;;12.05;8.73;;;18.90;99.90;;;;;;5011813;28;20045;-62
2022/09/11 08:11:25;;;;;;;10.50;8.90;;;19.00;99.90;;;;;;5009301;28;20041;-62
2022/09/11 08:13:53;;;;;;;9.25;8.00;;;18.90;99.90;;;;;;5010455;28;20350;-62
2022/09/11 08:16:20;;;;;;;9.45;6.75;;;19.00;99.90;;;;;;5006218;28;20119;-62
2022/09/11 08:18:47;;;;;;;7.40;6.53;;;19.00;99.90;;;;;;5011712;28;20379;-61
2022/09/11 08:21:13;;;;;;;8.35;5.25;;;19.20;99.90;;;;;;5012325;28;20049;-61
2022/09/11 08:23:40;;;;;;;8.18;6.00;;;19.20;99.90;;;;;;5010395;28;20062;-61
2022/09/11 08:26:08;;;;;;;8.95;6.20;;;19.30;99.90;;;;;;5002362;28;20120;-62
2022/09/11 08:28:35;;;;;;;19.80;17.75;;;19.30;99.90;;;;;;5023247;28;20370;-61
2022/09/11 08:31:02;;;;;;;9.02;8.13;;;19.40;99.90;;;;;;5018825;28;20047;-61
2022/09/11 08:33:28;;;;;;;10.18;5.75;;;19.40;99.90;;;;;;5014218;28;20402;-61
2022/09/11 08:35:56;;;;;;;9.32;6.47;;;19.60;99.90;;;;;;5014090;28;20052;-62
2022/09/11 08:38:23;;;;;;;9.00;6.05;;;19.60;99.90;;;;;;4994237;28;20529;-61
2022/09/11 08:40:49;;;;;;;8.75;5.85;;;19.40;99.90;;;;;;5002824;28;20164;-61
2022/09/11 08:43:23;;;;;;;9.05;5.32;;;19.40;99.90;;;;;;5017809;28;20440;-61
2022/09/11 08:45:52;;;;;;;11.30;5.32;;;19.40;99.90;;;;;;5011829;28;20042;-61
2022/09/11 08:48:36;;;;;;;8.38;4.72;;;19.50;99.90;;;;;;5012089;28;20129;-61
2022/09/11 08:51:03;;;;;;;6.85;4.57;;;19.60;99.90;;;;;;5002249;28;20116;-61
2022/09/11 08:53:30;;;;;;;8.23;4.95;;;19.70;99.90;;;;;;5005364;28;20356;-62
2022/09/11 08:56:10;;;;;;;6.95;5.25;;;19.80;99.90;;;;;;5004883;28;20078;-62
2022/09/11 08:59:00;;;;;;;7.10;4.93;;;19.80;99.90;;;;;;5009425;28;20108;-62
2022/09/11 09:02:06;;;;;;;7.25;4.25;;;19.80;99.90;;;;;;4993781;28;20467;-62
2022/09/11 09:04:59;;;;;;;5.18;3.58;;;20.00;99.90;;;;;;5012804;28;20139;-62
2022/09/11 09:07:50;;;;;;;6.03;3.47;;;20.20;99.90;;;;;;5000390;28;20160;-62
2022/09/11 09:10:44;;;;;;;5.63;3.20;;;20.20;99.90;;;;;;4999427;28;20121;-62
2022/09/11 09:13:36;;;;;;;7.07;4.35;;;20.20;99.90;;;;;;5009147;28;20046;-62
2022/09/11 09:16:20;;;;;;;5.43;3.95;;;20.20;99.90;;;;;;5001632;28;20060;-62
2022/09/11 09:18:52;;;;;;;6.40;3.97;;;20.20;99.90;;;;;;5013001;28;20443;-63
2022/09/11 09:21:26;;;;;;;7.00;4.28;;;20.50;99.90;;;;;;5013086;28;20121;-63
2022/09/11 09:23:54;;;;;;;5.05;3.35;;;20.90;99.90;;;;;;5008235;28;20181;-62
2022/09/11 09:26:23;;;;;;;6.53;3.80;;;21.10;99.90;;;;;;5024994;28;20049;-62
2022/09/11 09:28:53;;;;;;;5.00;3.22;;;21.50;99.90;;;;;;5003537;28;20046;-63
2022/09/11 09:31:21;;;;;;;7.72;4.07;;;21.70;99.90;;;;;;4995930;28;20129;-62
2022/09/11 09:34:01;;;;;;;6.05;3.70;;;21.70;99.90;;;;;;4999602;28;20460;-62
2022/09/11 09:36:36;;;;;;;5.50;2.83;;;21.60;99.90;;;;;;4991453;28;20046;-63
2022/09/11 09:39:12;;;;;;;6.68;3.40;;;21.40;99.90;;;;;;5014368;28;20120;-63
2022/09/11 09:41:59;;;;;;;5.60;3.67;;;21.10;99.90;;;;;;4999119;28;20124;-61
2022/09/11 09:45:01;;;;;;;5.97;3.88;;;20.80;99.90;;;;;;5017151;28;20473;-63
2022/09/11 09:47:28;;;;;;;5.32;3.47;;;20.80;99.90;;;;;;5011792;28;20336;-64
2022/09/11 09:49:58;;;;;;;6.60;3.50;;;20.50;99.90;;;;;;4984662;28;20128;-64
2022/09/11 09:52:30;;;;;;;4.63;3.03;;;20.50;99.90;;;;;;4986474;28;20044;-61
2022/09/11 09:55:01;;;;;;;5.15;3.10;;;20.50;99.90;;;;;;5010909;28;20108;-64
2022/09/11 09:57:36;;;;;;;5.28;3.28;;;20.40;99.90;;;;;;5003132;28;20052;-63
2022/09/11 10:00:10;;;;;;;4.78;2.90;;;20.40;99.90;;;;;;5017506;28;20034;-62
2022/09/11 10:02:54;;;;;;;6.68;3.67;;;20.30;99.90;;;;;;5014323;28;20038;-64
2022/09/11 10:05:25;;;;;;;5.45;3.15;;;20.30;99.90;;;;;;5009479;28;20046;-63
2022/09/11 10:07:52;;;;;;;5.55;2.92;;;20.20;99.90;;;;;;5003653;28;20042;-63
2022/09/11 10:10:27;;;;;;;5.40;3.20;;;20.20;99.90;;;;;;4999238;28;20037;-63
2022/09/11 10:12:55;;;;;;;4.60;3.20;;;20.40;99.90;;;;;;4994552;28;20074;-63
2022/09/11 10:15:22;;;;;;;5.18;2.90;;;20.60;99.90;;;;;;5010607;28;20042;-63
2022/09/11 10:17:49;;;;;;;6.60;2.97;;;20.80;99.90;;;;;;4987002;28;20050;-62
2022/09/11 10:20:17;;;;;;;5.65;2.90;;;20.80;99.90;;;;;;4990720;28;20074;-64
2022/09/11 10:22:43;;;;;;;5.15;3.03;;;20.80;99.90;;;;;;4994581;28;20046;-64
2022/09/11 10:25:25;;;;;;;7.15;2.70;;;20.70;99.90;;;;;;5000398;28;20104;-63
2022/09/11 10:27:58;;;;;;;4.75;2.70;;;20.70;99.90;;;;;;5005300;28;20117;-63
2022/09/11 10:30:38;;;;;;;6.03;2.55;;;20.60;99.90;;;;;;5001826;28;20046;-63
2022/09/11 10:33:26;;;;;;;5.22;2.53;;;20.50;99.90;;;;;;5010817;28;20081;-64
2022/09/11 10:35:54;;;;;;;4.20;2.35;;;20.40;99.90;;;;;;5011929;28;20046;-63
2022/09/11 10:38:43;;;;;;;3.45;2.03;;;20.30;99.90;;;;;;5006166;28;20132;-62
2022/09/11 10:41:12;;;;;;;4.13;2.15;;;20.30;99.90;;;;;;4992645;28;20038;-62
2022/09/11 10:43:49;;;;;;;3.10;1.92;;;20.20;99.90;;;;;;5025498;28;21446;-62
2022/09/11 10:46:23;;;;;;;4.07;2.35;;;20.20;99.90;;;;;;5001757;28;20035;-63
2022/09/11 10:48:54;;;;;;;;;;;20.30;99.90;;;;;;5012310;28;20026;-62
2022/09/11 10:51:21;;;;;;;3.88;2.20;;;20.30;99.90;;;;;;5010000;28;19932;-62
2022/09/11 10:53:55;;;;;;;6.00;2.35;;;20.50;99.90;;;;;;5003960;28;20113;-64
2022/09/11 10:56:21;;;;;;;4.65;2.20;;;20.70;99.90;;;;;;5006929;28;20050;-62
2022/09/11 10:58:52;;;;;;;3.38;2.35;;;20.80;99.90;;;;;;5015891;28;20191;-62
2022/09/11 11:01:17;;;;;;;5.47;2.35;;;20.90;99.90;;;;;;5004263;28;20046;-62
2022/09/11 11:03:44;;;;;;;7.10;2.58;;;21.20;99.90;;;;;;4984271;28;20056;-62
2022/09/11 11:06:19;;;;;;;3.90;1.90;;;21.40;99.90;;;;;;4998912;28;20400;-63
2022/09/11 11:09:15;;;;;;;4.18;2.20;;;21.70;99.90;;;;;;5034765;28;20048;-62
2022/09/11 11:12:20;;;;;;;5.63;2.35;;;21.90;99.90;;;;;;5021253;28;20044;-63
2022/09/11 11:15:01;;;;;;;5.18;2.42;;;22.10;99.90;;;;;;5000842;28;20042;-62
2022/09/11 11:17:48;;;;;;;5.20;2.45;;;22.30;99.90;;;;;;4998642;28;20049;-63
2022/09/11 11:20:38;;;;;;;5.50;1.92;;;22.40;99.90;;;;;;5002261;28;20113;-64
2022/09/11 11:23:23;;;;;;;4.15;1.70;;;22.50;99.90;;;;;;5015694;28;20419;-59
2022/09/11 11:26:10;;;;;;;2.88;1.75;;;22.50;99.90;;;;;;5016147;28;20081;-59
2022/09/11 11:29:13;;;;;;;3.95;1.88;;;22.40;99.90;;;;;;5007650;28;20053;-60
2022/09/11 11:31:54;;;;;;;5.40;2.00;;;22.30;99.90;;;;;;5016224;28;20114;-60
2022/09/11 11:34:53;;;;;;;2.88;1.88;;;22.40;99.90;;;;;;5015237;28;20110;-59
2022/09/11 11:37:27;;;;;;;3.72;2.30;;;22.60;99.90;;;;;;4996172;28;20100;-62
2022/09/11 11:40:11;;;;;;;3.58;2.15;;;22.50;99.90;;;;;;4996753;28;20113;-63
2022/09/11 11:42:49;;;;;;;3.13;1.85;;;22.50;99.90;;;;;;5015944;28;20042;-63
2022/09/11 11:45:41;;;;;;;4.60;1.88;;;22.60;99.90;;;;;;5013116;28;20037;-62
2022/09/11 11:48:19;;;;;;;3.58;2.00;;;22.60;99.90;;;;;;5026774;28;20459;-63
2022/09/11 11:50:58;;;;;;;3.75;1.80;;;22.60;99.90;;;;;;5006926;28;20070;-62
2022/09/11 11:53:31;;;;;;;2.63;1.42;;;22.60;99.90;;;;;;5010241;28;20052;-62
2022/09/11 11:56:21;;;;;;;2.47;1.40;;;22.50;99.90;;;;;;5013219;28;20049;-65
2022/09/11 11:59:17;;;;;;;3.63;1.90;;;22.70;99.90;;;;;;4998505;28;20061;-61
2022/09/11 12:02:02;;;;;;;2.78;1.50;;;22.80;99.90;;;;;;5001308;28;20378;-60
2022/09/11 12:04:57;;;;;;;5.07;1.90;;;22.80;99.90;;;;;;5035427;28;20131;-60
2022/09/11 12:07:37;;;;;;;5.53;2.00;;;22.70;99.90;;;;;;5020169;28;20115;-62
2022/09/11 12:10:06;;;;;;;5.28;1.80;;;22.80;99.90;;;;;;5034251;28;20069;-62
2022/09/11 12:12:43;;;;;;;2.85;1.52;;;22.80;99.90;;;;;;5035041;28;20033;-62
2022/09/11 12:15:19;;;;;;;3.15;1.40;;;22.70;99.90;;;;;;5020237;28;20116;-62
2022/09/11 12:17:56;;;;;;;4.57;1.92;;;22.80;99.90;;;;;;5014805;28;20034;-62
2022/09/11 12:20:37;;;;;;;3.45;1.73;;;22.80;99.90;;;;;;4998032;28;20355;-62
2022/09/11 12:23:05;;;;;;;3.47;1.50;;;22.90;99.90;;;;;;5015022;28;20363;-61
2022/09/11 12:25:31;;;;;;;4.40;1.90;;;22.90;99.90;;;;;;5014837;28;20038;-63
2022/09/11 12:28:29;;;;;;;3.45;1.63;;;22.90;99.90;;;;;;5002914;28;20412;-62
2022/09/11 12:31:06;;;;;;;4.43;1.50;;;22.90;99.90;;;;;;4962730;28;20050;-62
2022/09/11 12:33:45;;;;;;;4.15;1.42;;;23.00;99.90;;;;;;4995074;28;20128;-63
2022/09/11 12:36:11;;;;;;;4.50;1.30;;;23.00;99.90;;;;;;5008293;28;20472;-62
2022/09/11 12:38:49;;;;;;;2.13;1.30;;;23.00;99.90;;;;;;5020224;28;20148;-63
2022/09/11 12:41:30;;;;;;;3.10;1.45;;;23.10;99.90;;;;;;4995162;28;20042;-62
2022/09/11 12:43:56;;;;;;;3.67;1.80;;;23.10;99.90;;;;;;4998673;28;20360;-62
2022/09/11 12:46:21;;;;;;;2.88;1.55;;;23.10;99.90;;;;;;4998485;28;20096;-62
2022/09/11 12:48:49;;;;;;;2.50;1.70;;;23.10;99.90;;;;;;5006826;28;20052;-64
2022/09/11 12:51:31;;;;;;;2.97;1.60;;;23.10;99.90;;;;;;5005572;28;20117;-62
2022/09/11 12:54:00;;;;;;;5.32;1.90;;;23.10;99.90;;;;;;5029239;28;20041;-62
2022/09/11 12:56:28;;;;;;;2.40;1.60;;;23.00;99.90;;;;;;5015613;28;20037;-62
2022/09/11 12:58:59;;;;;;;2.97;1.60;;;23.00;99.90;;;;;;5008114;28;20042;-62
2022/09/11 13:01:29;;;;;;;5.30;1.83;;;23.10;99.90;;;;;;5031118;28;20084;-62